createdAt,value
2019-03-16T00:02:13.066Z,98085.51
2019-03-16T00:04:41.149Z,98079.17
2019-03-16T00:07:10.366Z,98072.36
2019-03-16T00:09:40.117Z,98077.17
2019-03-16T00:12:08.427Z,98082.32
2019-03-16T00:14:36.740Z,98088.66
2019-03-16T00:17:05.316Z,98083.86
2019-03-16T00:19:33.358Z,98094.17
2019-03-16T00:22:01.949Z,98087.72
2019-03-16T00:24:35.447Z,98093.81
2019-03-16T00:27:03.628Z,98101.54
2019-03-16T00:29:31.979Z,98086.68
2019-03-16T00:32:12.912Z,98094.86
2019-03-16T00:34:30.563Z,98103.63
2019-03-16T00:36:58.862Z,98104.93
2019-03-16T00:39:27.102Z,98104.00
2019-03-16T00:41:55.717Z,98101.79
2019-03-16T00:44:25.623Z,98112.88
2019-03-16T00:46:53.616Z,98109.50
2019-03-16T00:49:21.838Z,98107.28
2019-03-16T00:51:50.001Z,98105.52
2019-03-16T00:54:18.081Z,98108.80
2019-03-16T00:56:46.125Z,98113.25
2019-03-16T00:59:14.177Z,98107.98
2019-03-16T01:01:42.269Z,98101.19
2019-03-16T01:04:10.747Z,98100.71
2019-03-16T01:06:39.021Z,98110.19
2019-03-16T01:09:08.423Z,98108.22
2019-03-16T01:11:36.439Z,98108.22
2019-03-16T01:14:04.566Z,98114.06
2019-03-16T01:16:32.679Z,98111.48
2019-03-16T01:19:00.707Z,98119.56
2019-03-16T01:21:28.722Z,98120.84
2019-03-16T01:23:57.211Z,98116.06
2019-03-16T01:26:26.259Z,98117.94
2019-03-16T01:28:54.836Z,98121.09
2019-03-16T01:31:22.786Z,98112.55
2019-03-16T01:33:50.823Z,98113.46
2019-03-16T01:36:18.925Z,98117.13
2019-03-16T01:38:48.789Z,98114.30
2019-03-16T01:41:16.876Z,98110.44
2019-03-16T01:43:46.027Z,98106.80
2019-03-16T01:46:15.961Z,98111.13
2019-03-16T01:48:44.973Z,98104.69
2019-03-16T01:51:13.067Z,98106.33
2019-03-16T01:53:41.323Z,98106.70
2019-03-16T01:56:09.453Z,98097.09
2019-03-16T01:58:37.440Z,98107.98
2019-03-16T02:01:05.485Z,98108.31
2019-03-16T02:03:33.550Z,98113.48
2019-03-16T02:06:01.839Z,98100.59
2019-03-16T02:08:31.738Z,98103.75
2019-03-16T02:11:00.026Z,98106.58
2019-03-16T02:13:28.061Z,98112.77
2019-03-16T02:16:10.022Z,98104.80
2019-03-16T02:18:26.063Z,98110.67
2019-03-16T02:20:54.558Z,98108.89
2019-03-16T02:23:22.761Z,98099.89
2019-03-16T02:25:51.482Z,98102.47
2019-03-16T02:28:19.817Z,98099.41
2019-03-16T02:30:48.216Z,98090.27
2019-03-16T02:33:16.382Z,98097.77
2019-03-16T02:35:44.451Z,98091.70
2019-03-16T02:38:12.705Z,98087.83
2019-03-16T02:40:40.820Z,98090.63
2019-03-16T02:43:08.915Z,98091.11
2019-03-16T02:45:37.064Z,98094.50
2019-03-16T02:48:05.422Z,98103.87
2019-03-16T02:50:33.698Z,98090.30
2019-03-16T02:53:02.008Z,98092.28
2019-03-16T02:55:30.014Z,98094.05
2019-03-16T02:57:58.092Z,98091.35
2019-03-16T03:00:26.140Z,98091.22
2019-03-16T03:02:54.414Z,98098.72
2019-03-16T03:05:23.989Z,98100.34
2019-03-16T03:07:52.037Z,98102.02
2019-03-16T03:10:20.095Z,98102.95
2019-03-16T03:12:48.110Z,98117.36
2019-03-16T03:15:16.240Z,98120.06
2019-03-16T03:17:44.202Z,98128.12
2019-03-16T03:20:12.395Z,98127.77
2019-03-16T03:22:40.367Z,98126.95
2019-03-16T03:25:08.698Z,98129.30
2019-03-16T03:27:36.914Z,98126.95
2019-03-16T03:30:06.275Z,98132.56
2019-03-16T03:32:34.273Z,98133.39
2019-03-16T03:35:02.466Z,98131.98
2019-03-16T03:37:30.590Z,98136.80
2019-03-16T03:39:58.727Z,98134.34
2019-03-16T03:42:26.731Z,98141.84
2019-03-16T03:44:54.739Z,98142.29
2019-03-16T03:47:22.881Z,98135.16
2019-03-16T03:49:51.970Z,98141.27
2019-03-16T03:52:20.285Z,98141.16
2019-03-16T03:54:48.336Z,98136.67
2019-03-16T03:57:16.490Z,98127.78
2019-03-16T03:59:44.683Z,98136.11
2019-03-16T04:02:12.657Z,98121.44
2019-03-16T04:04:41.146Z,98123.88
2019-03-16T04:07:09.417Z,98125.64
2019-03-16T04:09:38.580Z,98114.77
2019-03-16T04:12:06.619Z,98118.03
2019-03-16T04:14:34.933Z,98120.50
2019-03-16T04:17:02.967Z,98125.17
2019-03-16T04:19:31.374Z,98124.01
2019-03-16T04:21:59.484Z,98128.47
2019-03-16T04:24:27.760Z,98123.91
2019-03-16T04:26:55.674Z,98131.98
2019-03-16T04:29:24.279Z,98136.78
2019-03-16T04:31:52.383Z,98132.34
2019-03-16T04:34:29.186Z,98140.75
2019-03-16T04:36:51.010Z,98143.69
2019-03-16T04:39:19.088Z,98154.33
2019-03-16T04:41:47.079Z,98145.53
2019-03-16T04:44:15.154Z,98143.91
2019-03-16T04:46:43.309Z,98140.99
2019-03-16T04:49:11.361Z,98151.88
2019-03-16T04:51:39.512Z,98150.47
2019-03-16T04:54:07.611Z,98151.41
2019-03-16T04:56:36.864Z,98152.24
2019-03-16T04:59:04.941Z,98149.90
2019-03-16T05:01:34.268Z,98142.05
2019-03-16T05:04:02.553Z,98152.80
2019-03-16T05:06:31.275Z,98150.00
2019-03-16T05:08:59.523Z,98157.63
2019-03-16T05:11:27.730Z,98147.66
2019-03-16T05:13:55.741Z,98153.77
2019-03-16T05:16:23.830Z,98146.39
2019-03-16T05:18:52.146Z,98147.55
2019-03-16T05:21:20.270Z,98144.05
2019-03-16T05:23:48.629Z,98150.83
2019-03-16T05:26:18.145Z,98146.38
2019-03-16T05:28:46.613Z,98156.31
2019-03-16T05:31:14.933Z,98146.02
2019-03-16T05:33:42.930Z,98149.31
2019-03-16T05:36:10.952Z,98153.51
2019-03-16T05:38:40.789Z,98156.45
2019-03-16T05:41:08.892Z,98159.94
2019-03-16T05:43:38.053Z,98171.66
2019-03-16T05:46:06.403Z,98155.85
2019-03-16T05:48:34.501Z,98156.42
2019-03-16T05:51:02.779Z,98159.25
2019-03-16T05:53:30.962Z,98161.59
2019-03-16T05:55:59.082Z,98168.59
2019-03-16T05:58:27.383Z,98165.90
2019-03-16T06:00:55.492Z,98169.30
2019-03-16T06:03:23.700Z,98163.80
2019-03-16T06:05:54.859Z,98167.08
2019-03-16T06:08:28.199Z,98170.81
2019-03-16T06:10:58.296Z,98157.50
2019-03-16T06:13:26.423Z,98179.27
2019-03-16T06:15:54.508Z,98180.42
2019-03-16T06:18:23.726Z,98187.12
2019-03-16T06:20:51.785Z,98184.28
2019-03-16T06:23:20.419Z,98182.77
2019-03-16T06:25:48.643Z,98187.45
2019-03-16T06:28:16.915Z,98187.22
2019-03-16T06:30:45.297Z,98203.36
2019-03-16T06:33:13.325Z,98201.58
2019-03-16T06:35:41.352Z,98203.00
2019-03-16T06:38:09.463Z,98205.58
2019-03-16T06:40:39.355Z,98214.72
2019-03-16T06:43:08.644Z,98202.31
2019-03-16T06:45:37.100Z,98205.25
2019-03-16T06:48:05.351Z,98210.40
2019-03-16T06:50:33.402Z,98220.14
2019-03-16T06:53:01.628Z,98212.77
2019-03-16T06:55:30.747Z,98220.73
2019-03-16T06:57:59.181Z,98229.98
2019-03-16T07:00:27.278Z,98223.08
2019-03-16T07:02:55.609Z,98227.30
2019-03-16T07:05:37.263Z,98229.88
2019-03-16T07:07:54.251Z,98227.44
2019-03-16T07:10:22.651Z,98226.12
2019-03-16T07:12:51.738Z,98231.40
2019-03-16T07:15:20.957Z,98239.13
2019-03-16T07:17:49.189Z,98239.23
2019-03-16T07:20:17.461Z,98236.45
2019-03-16T07:22:45.870Z,98241.23
2019-03-16T07:25:13.913Z,98243.05
2019-03-16T07:27:42.023Z,98238.09
2019-03-16T07:30:10.755Z,98240.00
2019-03-16T07:32:40.272Z,98245.75
2019-03-16T07:35:08.936Z,98245.73
2019-03-16T07:37:37.456Z,98261.31
2019-03-16T07:40:07.121Z,98260.63
2019-03-16T07:42:35.593Z,98247.94
2019-03-16T07:45:08.603Z,98252.98
2019-03-16T07:47:34.962Z,98257.32
2019-03-16T07:50:03.743Z,98262.47
2019-03-16T07:52:33.330Z,98246.31
2019-03-16T07:55:01.633Z,98252.91
2019-03-16T07:57:39.508Z,98251.14
2019-03-16T07:59:59.855Z,98256.52
2019-03-16T08:02:27.833Z,98256.78
2019-03-16T08:04:58.056Z,98257.58
2019-03-16T08:07:26.481Z,98270.36
2019-03-16T08:09:55.058Z,98275.38
2019-03-16T08:12:23.361Z,98258.87
2019-03-16T08:14:53.310Z,98275.75
2019-03-16T08:17:21.374Z,98282.39
2019-03-16T08:19:50.822Z,98281.95
2019-03-16T08:22:20.703Z,98292.27
2019-03-16T08:24:51.601Z,98293.30
2019-03-16T08:27:19.645Z,98291.97
2019-03-16T08:29:47.743Z,98294.48
2019-03-16T08:32:17.611Z,98288.73
2019-03-16T08:34:46.005Z,98298.25
2019-03-16T08:37:14.017Z,98292.73
2019-03-16T08:39:42.424Z,98302.70
2019-03-16T08:42:12.329Z,98301.87
2019-03-16T08:44:41.274Z,98306.91
2019-03-16T08:47:10.117Z,98295.91
2019-03-16T08:49:38.328Z,98305.84
2019-03-16T08:52:07.727Z,98299.31
2019-03-16T08:54:36.388Z,98299.53
2019-03-16T08:57:05.229Z,98295.22
2019-03-16T08:59:33.548Z,98298.63
2019-03-16T09:02:01.675Z,98296.94
2019-03-16T09:04:29.794Z,98290.68
2019-03-16T09:06:58.076Z,98283.96
2019-03-16T09:09:26.227Z,98286.05
2019-03-16T09:11:54.774Z,98285.97
2019-03-16T09:14:22.946Z,98289.14
2019-03-16T09:16:51.075Z,98297.49
2019-03-16T09:19:19.752Z,98286.75
2019-03-16T09:21:48.554Z,98288.63
2019-03-16T09:24:16.846Z,98290.44
2019-03-16T09:26:45.350Z,98287.42
2019-03-16T09:29:15.231Z,98276.95
2019-03-16T09:31:43.842Z,98280.58
2019-03-16T09:34:13.259Z,98278.25
2019-03-16T09:36:41.432Z,98272.09
2019-03-16T09:39:09.707Z,98277.38
2019-03-16T09:41:39.773Z,98284.60
2019-03-16T09:44:09.274Z,98275.25
2019-03-16T09:46:37.729Z,98273.34
2019-03-16T09:49:07.646Z,98277.00
2019-03-16T09:51:37.309Z,98263.14
2019-03-16T09:54:05.978Z,98267.19
2019-03-16T09:56:36.826Z,98260.71
2019-03-16T09:59:07.703Z,98261.52
2019-03-16T10:01:40.475Z,98257.82
2019-03-16T10:04:08.875Z,98251.74
2019-03-16T10:06:38.705Z,98249.26
2019-03-16T10:09:07.645Z,98259.45
2019-03-16T10:11:35.829Z,98251.24
2019-03-16T10:14:04.157Z,98256.81
2019-03-16T10:16:33.456Z,98242.87
2019-03-16T10:19:02.677Z,98251.34
2019-03-16T10:21:34.886Z,98253.09
2019-03-16T10:24:05.113Z,98259.69
2019-03-16T10:26:37.520Z,98250.19
2019-03-16T10:29:10.149Z,98245.50
2019-03-16T10:31:40.005Z,98250.66
2019-03-16T10:34:09.537Z,98251.26
2019-03-16T10:36:39.018Z,98242.92
2019-03-16T10:39:09.166Z,98244.42
2019-03-16T10:41:37.408Z,98236.89
2019-03-16T10:44:05.783Z,98234.60
2019-03-16T10:46:39.087Z,98239.77
2019-03-16T10:49:12.681Z,98237.89
2019-03-16T10:51:45.979Z,98237.45
2019-03-16T10:54:14.666Z,98236.62
2019-03-16T10:56:42.883Z,98234.63
2019-03-16T10:59:11.863Z,98229.88
2019-03-16T11:01:40.459Z,98233.80
2019-03-16T11:04:09.623Z,98226.62
2019-03-16T11:06:39.763Z,98226.73
2019-03-16T11:09:08.998Z,98224.58
2019-03-16T11:11:37.583Z,98219.96
2019-03-16T11:14:05.647Z,98207.54
2019-03-16T11:16:33.925Z,98209.37
2019-03-16T11:19:02.373Z,98216.28
2019-03-16T11:21:31.011Z,98217.53
2019-03-16T11:23:59.559Z,98206.42
2019-03-16T11:26:28.046Z,98202.44
2019-03-16T11:29:04.526Z,98199.88
2019-03-16T11:31:27.370Z,98205.02
2019-03-16T11:33:55.579Z,98186.63
2019-03-16T11:36:25.548Z,98187.72
2019-03-16T11:38:55.376Z,98183.08
2019-03-16T11:41:23.899Z,98179.59
2019-03-16T11:43:52.268Z,98193.98
2019-03-16T11:46:20.489Z,98176.60
2019-03-16T11:48:49.174Z,98169.67
2019-03-16T11:51:18.403Z,98173.36
2019-03-16T11:53:47.063Z,98175.47
2019-03-16T11:56:18.221Z,98158.20
2019-03-16T11:58:46.359Z,98172.52
2019-03-16T12:01:15.374Z,98165.17
2019-03-16T12:03:43.421Z,98154.14
2019-03-16T12:06:11.537Z,98166.73
2019-03-16T12:08:39.879Z,98153.84
2019-03-16T12:11:08.110Z,98162.64
2019-03-16T12:13:36.084Z,98159.53
2019-03-16T12:16:04.355Z,98146.63
2019-03-16T12:18:32.388Z,98167.48
2019-03-16T12:21:00.389Z,98156.77
2019-03-16T12:23:28.836Z,98144.05
2019-03-16T12:25:57.233Z,98146.02
2019-03-16T12:28:25.355Z,98144.72
2019-03-16T12:30:53.428Z,98125.78
2019-03-16T12:33:23.269Z,98126.70
2019-03-16T12:35:51.430Z,98121.32
2019-03-16T12:38:19.537Z,98120.00
2019-03-16T12:40:47.586Z,98134.90
2019-03-16T12:43:16.365Z,98112.63
2019-03-16T12:45:44.429Z,98111.28
2019-03-16T12:48:12.560Z,98108.01
2019-03-16T12:50:40.794Z,98115.22
2019-03-16T12:53:08.837Z,98098.70
2019-03-16T12:55:38.207Z,98099.66
2019-03-16T12:58:06.270Z,98086.34
2019-03-16T13:00:34.313Z,98099.61
2019-03-16T13:03:03.821Z,98079.44
2019-03-16T13:05:33.285Z,98090.95
2019-03-16T13:08:01.255Z,98085.11
2019-03-16T13:10:30.298Z,98078.31
2019-03-16T13:12:58.392Z,98067.88
2019-03-16T13:15:26.575Z,98072.94
2019-03-16T13:17:54.698Z,98059.77
2019-03-16T13:20:22.867Z,98066.83
2019-03-16T13:22:51.017Z,98062.89
2019-03-16T13:25:20.974Z,98059.00
2019-03-16T13:27:49.020Z,98064.27
2019-03-16T13:30:17.855Z,98055.00
2019-03-16T13:32:46.183Z,98054.26
2019-03-16T13:35:14.975Z,98042.92
2019-03-16T13:37:43.066Z,98038.41
2019-03-16T13:40:12.361Z,98042.99
2019-03-16T13:42:41.744Z,98042.16
2019-03-16T13:45:12.689Z,98046.12
2019-03-16T13:47:41.169Z,98048.27
2019-03-16T13:50:13.071Z,98050.72
2019-03-16T13:52:42.025Z,98049.25
2019-03-16T13:55:10.247Z,98048.55
2019-03-16T13:57:39.179Z,98038.29
2019-03-16T14:00:12.223Z,98046.60
2019-03-16T14:02:40.105Z,98037.44
2019-03-16T14:05:10.707Z,98037.94
2019-03-16T14:07:39.374Z,98024.06
2019-03-16T14:10:12.400Z,98025.63
2019-03-16T14:12:40.859Z,98022.52
2019-03-16T14:15:10.331Z,98004.80
2019-03-16T14:17:38.848Z,98011.36
2019-03-16T14:20:10.137Z,98012.38
2019-03-16T14:22:38.208Z,98008.31
2019-03-16T14:25:07.592Z,98002.11
2019-03-16T14:27:35.883Z,98010.42
2019-03-16T14:30:05.354Z,97988.67
2019-03-16T14:32:33.803Z,97998.08
2019-03-16T14:35:01.958Z,97992.89
2019-03-16T14:37:31.116Z,97992.52
2019-03-16T14:39:59.385Z,97997.00
2019-03-16T14:42:27.695Z,98001.41
2019-03-16T14:44:56.855Z,97987.19
2019-03-16T14:47:25.377Z,97980.55
2019-03-16T14:49:53.819Z,97981.34
2019-03-16T14:52:22.206Z,97987.68
2019-03-16T14:54:51.529Z,97987.99
2019-03-16T14:57:21.606Z,97981.27
2019-03-16T14:59:50.766Z,97989.17
2019-03-16T15:02:19.237Z,97972.89
2019-03-16T15:04:50.541Z,97980.73
2019-03-16T15:07:19.784Z,97982.41
2019-03-16T15:09:47.920Z,97977.39
2019-03-16T15:12:16.215Z,97967.72
2019-03-16T15:14:44.583Z,97969.44
2019-03-16T15:17:12.803Z,97959.41
2019-03-16T15:19:41.103Z,97962.95
2019-03-16T15:22:11.993Z,97955.16
2019-03-16T15:24:39.511Z,97955.41
2019-03-16T15:27:07.858Z,97946.31
2019-03-16T15:29:35.991Z,97944.92
2019-03-16T15:32:04.415Z,97935.37
2019-03-16T15:34:32.854Z,97937.24
2019-03-16T15:37:01.258Z,97928.08
2019-03-16T15:39:29.326Z,97922.80
2019-03-16T15:41:59.747Z,97933.42
2019-03-16T15:44:28.148Z,97930.51
2019-03-16T15:46:56.202Z,97921.81
2019-03-16T15:49:25.441Z,97905.97
2019-03-16T15:51:56.552Z,97910.59
2019-03-16T15:54:24.667Z,97905.83
2019-03-16T15:56:53.114Z,97906.76
2019-03-16T15:59:21.462Z,97903.66
2019-03-16T16:01:50.237Z,97891.06
2019-03-16T16:04:18.336Z,97893.27
2019-03-16T16:06:46.476Z,97881.19
2019-03-16T16:09:15.095Z,97878.51
2019-03-16T16:11:43.184Z,97880.83
2019-03-16T16:14:11.911Z,97880.00
2019-03-16T16:16:40.004Z,97878.95
2019-03-16T16:19:09.362Z,97870.92
2019-03-16T16:21:37.835Z,97874.67
2019-03-16T16:24:05.919Z,97865.73
2019-03-16T16:26:33.944Z,97867.64
2019-03-16T16:29:03.150Z,97857.98
2019-03-16T16:31:31.589Z,97851.52
2019-03-16T16:34:02.785Z,97848.39
2019-03-16T16:36:30.090Z,97844.06
2019-03-16T16:38:58.160Z,97839.51
2019-03-16T16:41:26.257Z,97831.41
2019-03-16T16:43:56.191Z,97835.64
2019-03-16T16:46:25.448Z,97828.58
2019-03-16T16:48:53.799Z,97830.94
2019-03-16T16:51:22.025Z,97826.63
2019-03-16T16:53:50.825Z,97832.56
2019-03-16T16:56:18.954Z,97832.04
2019-03-16T16:58:48.869Z,97821.97
2019-03-16T17:01:28.897Z,97825.12
2019-03-16T17:03:52.068Z,97820.80
2019-03-16T17:06:20.203Z,97819.14
2019-03-16T17:08:48.371Z,97817.78
2019-03-16T17:11:16.708Z,97816.77
2019-03-16T17:13:45.236Z,97813.03
2019-03-16T17:16:14.107Z,97807.80
2019-03-16T17:18:42.293Z,97806.20
2019-03-16T17:21:10.668Z,97799.60
2019-03-16T17:23:39.169Z,97798.86
2019-03-16T17:26:10.170Z,97807.95
2019-03-16T17:28:41.252Z,97796.80
2019-03-16T17:31:12.211Z,97802.44
2019-03-16T17:33:41.694Z,97797.28
2019-03-16T17:36:13.692Z,97797.78
2019-03-16T17:38:42.547Z,97790.52
2019-03-16T17:41:13.676Z,97789.61
2019-03-16T17:43:44.220Z,97792.66
2019-03-16T17:46:12.621Z,97792.09
2019-03-16T17:48:40.666Z,97787.41
2019-03-16T17:51:11.488Z,97788.10
2019-03-16T17:53:39.558Z,97795.61
2019-03-16T17:56:07.675Z,97784.52
2019-03-16T17:58:35.863Z,97792.56
2019-03-16T18:01:04.034Z,97783.02
2019-03-16T18:03:32.079Z,97788.22
2019-03-16T18:06:00.468Z,97781.84
2019-03-16T18:08:29.593Z,97790.00
2019-03-16T18:10:58.468Z,97784.27
2019-03-16T18:13:29.454Z,97786.70
2019-03-16T18:16:00.084Z,97789.19
2019-03-16T18:18:28.386Z,97784.44
2019-03-16T18:20:56.908Z,97788.25
2019-03-16T18:23:25.493Z,97785.56
2019-03-16T18:25:53.842Z,97786.22
2019-03-16T18:28:22.146Z,97783.75
2019-03-16T18:30:50.725Z,97784.53
2019-03-16T18:33:18.846Z,97782.21
2019-03-16T18:35:47.187Z,97774.02
2019-03-16T18:38:16.348Z,97780.16
2019-03-16T18:40:44.502Z,97780.32
2019-03-16T18:43:14.772Z,97780.20
2019-03-16T18:45:44.684Z,97778.83
2019-03-16T18:48:13.172Z,97780.88
2019-03-16T18:50:43.849Z,97789.13
2019-03-16T18:53:12.293Z,97783.52
2019-03-16T18:55:40.406Z,97775.94
2019-03-16T18:58:09.623Z,97770.78
2019-03-16T19:00:38.730Z,97765.08
2019-03-16T19:03:07.211Z,97761.58
2019-03-16T19:05:35.382Z,97755.41
2019-03-16T19:08:03.422Z,97757.05
2019-03-16T19:10:31.530Z,97754.26
2019-03-16T19:13:06.583Z,97747.02
2019-03-16T19:15:37.207Z,97749.77
2019-03-16T19:18:05.522Z,97742.22
2019-03-16T19:20:33.831Z,97739.45
2019-03-16T19:23:02.364Z,97736.70
2019-03-16T19:25:30.850Z,97743.63
2019-03-16T19:28:00.257Z,97735.66
2019-03-16T19:30:28.907Z,97734.45
2019-03-16T19:33:00.023Z,97735.80
2019-03-16T19:35:28.227Z,97730.84
2019-03-16T19:37:56.325Z,97730.84
2019-03-16T19:40:24.785Z,97727.48
2019-03-16T19:42:54.176Z,97728.16
2019-03-16T19:45:25.220Z,97726.98
2019-03-16T19:47:55.342Z,97721.25
2019-03-16T19:50:23.837Z,97711.32
2019-03-16T19:52:52.561Z,97712.09
2019-03-16T19:55:21.295Z,97697.33
2019-03-16T19:57:49.588Z,97705.48
2019-03-16T20:00:22.018Z,97703.23
2019-03-16T20:02:51.715Z,97698.16
2019-03-16T20:05:20.710Z,97699.55
2019-03-16T20:07:51.509Z,97696.49
2019-03-16T20:10:24.634Z,97686.72
2019-03-16T20:12:58.397Z,97685.84
2019-03-16T20:15:26.692Z,97682.56
2019-03-16T20:17:59.937Z,97676.84
2019-03-16T20:20:32.876Z,97681.91
2019-03-16T20:23:01.276Z,97672.77
2019-03-16T20:25:32.204Z,97673.49
2019-03-16T20:28:00.578Z,97663.81
2019-03-16T20:30:32.642Z,97666.95
2019-03-16T20:33:04.771Z,97664.70
2019-03-16T20:35:31.258Z,97675.58
2019-03-16T20:38:04.911Z,97669.11
2019-03-16T20:40:37.151Z,97669.82
2019-03-16T20:43:10.478Z,97666.89
2019-03-16T20:45:40.717Z,97673.59
2019-03-16T20:48:11.769Z,97675.86
2019-03-16T20:50:39.841Z,97670.43
2019-03-16T20:53:08.753Z,97662.14
2019-03-16T20:55:40.649Z,97661.06
2019-03-16T20:58:10.691Z,97658.06
2019-03-16T21:00:40.701Z,97653.17
2019-03-16T21:03:15.871Z,97652.30
2019-03-16T21:05:44.527Z,97648.34
2019-03-16T21:08:13.422Z,97645.14
2019-03-16T21:10:41.811Z,97644.91
2019-03-16T21:13:11.489Z,97651.70
2019-03-16T21:15:49.667Z,97645.94
2019-03-16T21:18:20.006Z,97652.03
2019-03-16T21:20:49.148Z,97653.70
2019-03-16T21:23:17.338Z,97647.53
2019-03-16T21:25:45.781Z,97644.36
2019-03-16T21:28:16.103Z,97648.36
2019-03-16T21:30:45.574Z,97639.30
2019-03-16T21:33:14.252Z,97645.01
2019-03-16T21:35:43.257Z,97642.81
2019-03-16T21:38:12.028Z,97635.67
2019-03-16T21:40:50.034Z,97647.44
2019-03-16T21:43:21.686Z,97645.67
2019-03-16T21:45:49.907Z,97647.23
2019-03-16T21:48:19.176Z,97641.45
2019-03-16T21:50:47.663Z,97636.77
2019-03-16T21:53:16.305Z,97635.55
2019-03-16T21:55:45.055Z,97638.70
2019-03-16T21:58:13.379Z,97642.09
2019-03-16T22:00:42.696Z,97636.46
2019-03-16T22:03:12.081Z,97636.81
2019-03-16T22:05:40.591Z,97626.72
2019-03-16T22:08:15.150Z,97629.68
2019-03-16T22:10:47.206Z,97632.34
2019-03-16T22:13:15.449Z,97629.48
2019-03-16T22:15:43.518Z,97627.92
2019-03-16T22:18:12.074Z,97631.21
2019-03-16T22:20:41.239Z,97630.47
2019-03-16T22:23:10.336Z,97621.64
2019-03-16T22:25:38.842Z,97617.58
2019-03-16T22:28:07.153Z,97627.62
2019-03-16T22:30:35.336Z,97614.45
2019-03-16T22:33:03.774Z,97613.73
2019-03-16T22:35:31.797Z,97606.83
2019-03-16T22:37:59.906Z,97607.80
2019-03-16T22:40:31.339Z,97602.14
2019-03-16T22:42:59.418Z,97599.72
2019-03-16T22:45:27.546Z,97599.64
2019-03-16T22:47:55.623Z,97590.97
2019-03-16T22:50:23.598Z,97590.41
2019-03-16T22:52:51.638Z,97587.48
2019-03-16T22:55:21.220Z,97579.35
2019-03-16T22:57:49.324Z,97583.84
2019-03-16T23:00:20.534Z,97574.92
2019-03-16T23:02:50.852Z,97575.74
2019-03-16T23:05:20.302Z,97564.60
2019-03-16T23:07:48.486Z,97570.84
2019-03-16T23:10:17.738Z,97571.39
2019-03-16T23:12:45.901Z,97567.66
2019-03-16T23:15:15.522Z,97565.83
2019-03-16T23:17:43.660Z,97556.84
2019-03-16T23:20:11.948Z,97560.59
2019-03-16T23:22:40.380Z,97556.86
2019-03-16T23:25:08.441Z,97542.46
2019-03-16T23:27:36.567Z,97541.75
2019-03-16T23:30:06.029Z,97540.08
2019-03-16T23:32:35.274Z,97542.23
2019-03-16T23:35:03.427Z,97538.75
2019-03-16T23:37:32.886Z,97528.02
2019-03-16T23:40:00.966Z,97531.22
2019-03-16T23:42:29.323Z,97524.84
2019-03-16T23:44:57.330Z,97519.59
2019-03-16T23:47:25.651Z,97516.16
2019-03-16T23:49:53.764Z,97500.20
2019-03-16T23:52:22.547Z,97505.59
2019-03-16T23:54:50.569Z,97510.09
2019-03-16T23:57:19.678Z,97510.44
2019-03-16T23:59:47.730Z,97505.63
